createdAt,value
2022-11-02T00:00:32.127Z,11.9
2022-11-02T00:02:36.107Z,11.9
2022-11-02T00:04:39.978Z,12
2022-11-02T00:06:44.004Z,12
2022-11-02T00:10:54.504Z,12
2022-11-02T00:12:58.404Z,12.1
2022-11-02T00:14:01.759Z,12.2
2022-11-02T00:16:05.691Z,12.2
2022-11-02T00:18:09.660Z,12.3
2022-11-02T00:20:14.253Z,12.4
2022-11-02T00:22:20.986Z,12.4
2022-11-02T00:24:24.909Z,12.4
2022-11-02T00:26:28.820Z,12.5
2022-11-02T00:28:32.724Z,12.5
2022-11-02T00:30:36.706Z,12.5
2022-11-02T00:32:40.612Z,12.6
2022-11-02T00:34:44.535Z,12.6
2022-11-02T00:38:55.198Z,12.6
2022-11-02T00:40:59.108Z,12.7
2022-11-02T00:43:03.046Z,12.7
2022-11-02T00:45:06.966Z,12.8
2022-11-02T00:49:14.819Z,12.7
2022-11-02T00:51:21.533Z,12.6
2022-11-02T00:53:25.490Z,12.6
2022-11-02T00:55:29.371Z,12.6
2022-11-02T00:57:33.307Z,12.5
2022-11-02T00:59:37.249Z,12.5
2022-11-02T01:01:41.311Z,12.5
2022-11-02T01:03:45.080Z,12.6
2022-11-02T01:05:51.818Z,12.7
2022-11-02T01:11:03.031Z,12.7
2022-11-02T01:13:06.955Z,12.6
2022-11-02T01:15:10.875Z,12.5
2022-11-02T01:17:14.805Z,12.5
2022-11-02T01:19:21.524Z,12.5
2022-11-02T01:21:25.448Z,12.5
2022-11-02T01:23:29.341Z,12.6
2022-11-02T01:25:33.285Z,12.6
2022-11-02T01:31:45.047Z,12.5
2022-11-02T01:33:51.776Z,12.5
2022-11-02T01:35:55.688Z,12.4
2022-11-02T01:40:03.620Z,12.4
2022-11-02T01:42:07.433Z,12.5
2022-11-02T01:44:11.350Z,12.6
2022-11-02T01:46:15.270Z,12
2022-11-02T01:48:22.015Z,11.1
2022-11-02T01:50:25.918Z,11
2022-11-02T01:52:29.831Z,10.8
2022-11-02T01:54:33.764Z,10.8
2022-11-02T01:56:37.673Z,10.7
2022-11-02T01:58:41.597Z,10.7
2022-11-02T02:00:45.481Z,10.7
2022-11-02T02:02:52.300Z,10.7
2022-11-02T02:04:56.131Z,10.7
2022-11-02T02:09:23.740Z,10.9
2022-11-02T02:11:27.670Z,10.9
2022-11-02T02:13:31.582Z,10.9
2022-11-02T02:15:38.283Z,10.8
2022-11-02T02:17:42.209Z,10.7
2022-11-02T02:19:46.108Z,10.5
2022-11-02T02:21:50.002Z,10.4
2022-11-02T02:23:53.939Z,10.4
2022-11-02T02:25:57.837Z,10.4
2022-11-02T02:28:02.005Z,10.3
2022-11-02T02:30:08.452Z,10.2
2022-11-02T02:32:12.381Z,10.2
2022-11-02T02:34:16.289Z,10.2
2022-11-02T02:36:20.160Z,10.2
2022-11-02T02:38:24.049Z,10.2
2022-11-02T02:40:27.948Z,10.1
2022-11-02T02:42:31.861Z,10.1
2022-11-02T02:44:38.564Z,10
2022-11-02T02:46:42.928Z,10
2022-11-02T02:50:50.230Z,9.9
2022-11-02T02:52:54.135Z,9.8
2022-11-02T02:54:58.026Z,9.9
2022-11-02T02:57:01.937Z,9.9
2022-11-02T02:59:08.632Z,9.9
2022-11-02T03:01:12.640Z,9.8
2022-11-02T03:03:16.401Z,9.9
2022-11-02T03:04:19.735Z,9.9
2022-11-02T03:06:23.614Z,9.9
2022-11-02T03:08:27.521Z,9.8
2022-11-02T03:10:31.396Z,9.8
2022-11-02T03:12:38.084Z,9.9
2022-11-02T03:14:41.979Z,9.9
2022-11-02T03:16:45.915Z,10
2022-11-02T03:18:49.756Z,10.1
2022-11-02T03:20:53.655Z,10.1
2022-11-02T03:22:57.512Z,10.1
2022-11-02T03:25:01.393Z,10.1
2022-11-02T03:27:08.106Z,10
2022-11-02T03:29:11.989Z,10.1
2022-11-02T03:31:15.853Z,10.1
2022-11-02T03:33:19.758Z,10.1
2022-11-02T03:35:23.624Z,10.1
2022-11-02T03:37:27.503Z,10.1
2022-11-02T03:39:31.405Z,10.2
2022-11-02T03:41:38.109Z,10.2
2022-11-02T03:43:41.992Z,10.2
2022-11-02T03:47:49.751Z,10.1
2022-11-02T03:49:53.645Z,10.2
2022-11-02T03:51:57.510Z,10.3
2022-11-02T03:54:01.406Z,10.3
2022-11-02T03:56:08.078Z,10.3
2022-11-02T03:58:11.966Z,10.3
2022-11-02T04:00:15.861Z,10.3
2022-11-02T04:03:23.102Z,10.3
2022-11-02T04:05:26.965Z,10.3
2022-11-02T04:09:37.553Z,10.6
2022-11-02T04:11:41.445Z,10.6
2022-11-02T04:15:49.219Z,10.7
2022-11-02T04:17:53.110Z,10.7
2022-11-02T04:19:56.989Z,10.7
2022-11-02T04:22:00.876Z,10.8
2022-11-02T04:24:09.070Z,10.8
2022-11-02T04:26:12.921Z,10.8
2022-11-02T04:28:16.807Z,10.9
2022-11-02T04:30:20.686Z,10.9
2022-11-02T04:32:24.560Z,11
2022-11-02T04:34:28.460Z,11
2022-11-02T04:36:32.336Z,11
2022-11-02T04:38:39.055Z,11.1
2022-11-02T04:42:46.831Z,11.1
2022-11-02T04:44:50.734Z,11.2
2022-11-02T04:53:09.105Z,11.3
2022-11-02T04:57:16.896Z,11.4
2022-11-02T05:00:24.151Z,11.5
2022-11-02T05:02:28.182Z,11.5
2022-11-02T05:04:31.957Z,11.5
2022-11-02T05:06:38.644Z,11.4
2022-11-02T05:08:42.561Z,11.4
2022-11-02T05:10:46.459Z,11.5
2022-11-02T05:21:08.776Z,11.7
2022-11-02T05:23:12.696Z,11.7
2022-11-02T05:25:16.588Z,11.8
2022-11-02T05:27:20.509Z,11.8
2022-11-02T05:29:24.418Z,11.8
2022-11-02T05:31:28.317Z,11.8
2022-11-02T05:33:32.202Z,11.8
2022-11-02T05:35:38.937Z,11.9
2022-11-02T05:39:49.497Z,11.8
2022-11-02T05:41:50.655Z,11.7
2022-11-02T05:45:58.480Z,11.6
2022-11-02T05:50:09.102Z,11.5
2022-11-02T05:52:13.016Z,11.5
2022-11-02T05:54:16.915Z,11.5
2022-11-02T05:56:35.026Z,11.5
2022-11-02T05:58:39.060Z,11.5
2022-11-02T06:00:42.853Z,11.5
2022-11-02T06:02:49.550Z,11.4
2022-11-02T06:04:53.522Z,11.4
2022-11-02T06:06:57.357Z,11.4
2022-11-02T06:09:06.698Z,11.3
2022-11-02T06:13:09.079Z,11.4
2022-11-02T06:15:12.984Z,11.4
2022-11-02T06:17:19.836Z,11.3
2022-11-02T06:19:23.627Z,11.3
2022-11-02T06:21:27.537Z,11.3
2022-11-02T06:23:31.432Z,11.4
2022-11-02T06:25:35.354Z,11.3
2022-11-02T06:27:44.943Z,11.4
2022-11-02T06:29:43.156Z,11.4
2022-11-02T06:35:57.685Z,11.5
2022-11-02T06:38:01.601Z,11.5
2022-11-02T06:40:05.524Z,11.5
2022-11-02T06:42:09.427Z,11.5
2022-11-02T06:44:13.314Z,11.4
2022-11-02T06:46:20.066Z,11.4
2022-11-02T06:48:24.000Z,11.4
2022-11-02T06:50:27.894Z,11.3
2022-11-02T06:55:39.058Z,11.3
2022-11-02T06:59:53.773Z,11.2
2022-11-02T07:08:05.330Z,11.3
2022-11-02T07:14:19.857Z,11.4
2022-11-02T07:16:23.763Z,11.4
2022-11-02T07:22:35.514Z,11.4
2022-11-02T07:24:39.402Z,11.5
2022-11-02T07:28:52.796Z,11.6
2022-11-02T07:30:53.941Z,11.6
2022-11-02T07:32:57.835Z,11.6
2022-11-02T07:35:01.741Z,11.7
2022-11-02T07:37:05.641Z,11.7
2022-11-02T07:39:09.534Z,11.7
2022-11-02T07:43:20.454Z,12
2022-11-02T07:45:24.368Z,12.2
2022-11-02T07:47:28.318Z,12.6
2022-11-02T07:48:31.662Z,12.2
2022-11-02T07:50:35.573Z,12.1
2022-11-02T07:52:39.471Z,11.9
2022-11-02T07:54:44.731Z,11.9
2022-11-02T07:56:50.086Z,12.3
2022-11-02T07:58:54.050Z,12.9
2022-11-02T08:00:59.828Z,13.5
2022-11-02T08:03:02.053Z,13
2022-11-02T08:05:05.786Z,12.2
2022-11-02T08:07:09.699Z,11.9
2022-11-02T08:09:13.627Z,11.7
2022-11-02T08:11:20.332Z,13.1
2022-11-02T08:13:24.247Z,13.7
2022-11-02T08:15:28.159Z,14.2
2022-11-02T08:17:32.076Z,14.8
2022-11-02T08:19:35.980Z,14.9
2022-11-02T08:21:39.892Z,15.8
2022-11-02T08:23:43.816Z,15.6
2022-11-02T08:25:50.554Z,15.9
2022-11-02T08:27:54.497Z,16
2022-11-02T08:29:58.414Z,15.9
2022-11-02T08:32:02.331Z,15.7
2022-11-02T08:34:06.857Z,15.7
2022-11-02T08:36:10.783Z,15.7
2022-11-02T08:38:14.724Z,15.7
2022-11-02T08:40:21.452Z,16.1
2022-11-02T08:42:25.375Z,16
2022-11-02T08:44:29.308Z,16
2022-11-02T08:47:36.603Z,15.5
2022-11-02T08:49:40.554Z,15.2
2022-11-02T08:51:44.496Z,15.8
2022-11-02T08:57:59.117Z,16.3
2022-11-02T09:02:07.126Z,16.5
2022-11-02T09:04:10.941Z,16.9
2022-11-02T09:06:14.875Z,17.1
2022-11-02T09:08:21.664Z,17.2
2022-11-02T09:10:25.573Z,17.7
2022-11-02T09:12:29.500Z,16.9
2022-11-02T09:16:41.212Z,16.3
2022-11-02T09:24:55.990Z,18.1
2022-11-02T09:26:59.906Z,18.1
2022-11-02T09:29:03.854Z,17.8
2022-11-02T09:31:10.788Z,16.7
2022-11-02T09:33:11.733Z,16.4
2022-11-02T09:35:15.649Z,17.2
2022-11-02T09:37:22.410Z,15.9
2022-11-02T09:39:26.360Z,16.4
2022-11-02T09:41:30.278Z,16.6
2022-11-02T09:43:54.001Z,16.6
2022-11-02T09:45:57.949Z,16.5
2022-11-02T09:48:17.136Z,17.3
2022-11-02T09:50:08.638Z,17.2
2022-11-02T09:52:12.563Z,16.9
2022-11-02T09:54:17.924Z,16.8
2022-11-02T09:56:20.441Z,16.4
2022-11-02T10:00:28.329Z,17
2022-11-02T10:02:32.284Z,16.7
2022-11-02T10:04:39.023Z,17.3
2022-11-02T10:06:42.977Z,17.2
2022-11-02T10:08:46.925Z,16.9
2022-11-02T10:10:51.011Z,17.7
2022-11-02T10:12:54.804Z,18.3
2022-11-02T10:14:58.748Z,18
2022-11-02T10:17:02.683Z,17.4
2022-11-02T10:19:09.458Z,19.1
2022-11-02T10:21:14.881Z,19.4
2022-11-02T10:23:18.788Z,18.9
2022-11-02T10:25:22.733Z,18.1
2022-11-02T10:27:26.665Z,17.9
2022-11-02T10:29:30.616Z,17.7
2022-11-02T10:31:34.546Z,17.8
2022-11-02T10:33:41.342Z,17.7
2022-11-02T10:36:04.756Z,18
2022-11-02T10:37:49.225Z,17.7
2022-11-02T10:38:52.582Z,18.1
2022-11-02T10:40:56.714Z,18.4
2022-11-02T10:43:00.467Z,17.7
2022-11-02T10:45:04.404Z,18.2
2022-11-02T10:47:11.180Z,18.5
2022-11-02T10:49:15.115Z,18.1
2022-11-02T10:51:19.061Z,18.2
2022-11-02T10:53:40.644Z,18.3
2022-11-02T10:55:26.925Z,18.4
2022-11-02T10:57:30.871Z,17.9
2022-11-02T10:59:34.811Z,18.2
2022-11-02T11:01:41.609Z,16.5
2022-11-02T11:03:45.544Z,16.9
2022-11-02T11:05:49.470Z,15.9
2022-11-02T11:07:53.386Z,15.4
2022-11-02T11:09:57.331Z,15.3
2022-11-02T11:12:01.266Z,15.2
2022-11-02T11:24:27.769Z,14.4
2022-11-02T11:26:31.673Z,14.3
2022-11-02T11:28:35.622Z,14.5
2022-11-02T11:31:00.049Z,14.4
2022-11-02T11:32:46.306Z,14.5
2022-11-02T11:34:50.247Z,14.5
2022-11-02T11:35:53.602Z,14.8
2022-11-02T11:37:57.548Z,14.9
2022-11-02T11:40:01.483Z,14.8
2022-11-02T11:42:05.414Z,14.6
2022-11-02T11:46:16.110Z,14.6
2022-11-02T11:52:31.638Z,14.9
2022-11-02T11:54:31.850Z,14.9
2022-11-02T11:56:35.775Z,14.9
2022-11-02T11:58:44.253Z,15.3
2022-11-02T12:00:46.468Z,15.3
2022-11-02T12:02:50.566Z,15.3
2022-11-02T12:04:54.358Z,15.3
2022-11-02T12:06:58.283Z,15.4
2022-11-02T12:09:04.556Z,15.6
2022-11-02T12:11:06.146Z,15.7
2022-11-02T12:13:12.915Z,15.3
2022-11-02T12:15:16.846Z,15.4
2022-11-02T12:21:28.671Z,15.3
2022-11-02T12:25:36.535Z,15.5
2022-11-02T12:29:47.236Z,15.1
2022-11-02T12:32:54.555Z,15.4
2022-11-02T12:35:23.215Z,15.7
2022-11-02T12:39:06.358Z,16.1
2022-11-02T12:41:13.115Z,16.4
2022-11-02T12:43:17.062Z,16.9
2022-11-02T12:47:24.982Z,16.1
2022-11-02T12:49:28.919Z,15.7
2022-11-02T12:51:32.866Z,15.5
2022-11-02T12:53:36.787Z,15.4
2022-11-02T12:55:43.540Z,15.2
2022-11-02T12:57:47.501Z,15.2
2022-11-02T12:59:51.439Z,15.4
2022-11-02T13:01:55.623Z,15.1
2022-11-02T13:03:59.306Z,15.1
2022-11-02T13:08:07.486Z,15.1
2022-11-02T13:10:13.948Z,15
2022-11-02T13:12:17.885Z,15.2
2022-11-02T13:14:21.828Z,15.1
2022-11-02T13:16:25.757Z,14.9
2022-11-02T13:18:29.691Z,14.7
2022-11-02T13:20:33.634Z,14.7
2022-11-02T13:22:37.594Z,14.8
2022-11-02T13:24:44.333Z,14.9
2022-11-02T13:26:53.154Z,14.7
2022-11-02T13:28:52.226Z,14.8
2022-11-02T13:31:21.856Z,14.8
2022-11-02T13:33:25.818Z,14.7
2022-11-02T13:35:29.733Z,14.7
2022-11-02T13:37:36.823Z,14.8
2022-11-02T13:39:40.771Z,14.7
2022-11-02T13:41:44.710Z,14.8
2022-11-02T13:43:48.648Z,14.9
2022-11-02T13:47:56.514Z,15
2022-11-02T13:50:00.486Z,15
2022-11-02T13:52:12.102Z,15.2
2022-11-02T13:54:11.171Z,15.2
2022-11-02T13:56:15.102Z,15.1
2022-11-02T13:58:19.047Z,14.9
2022-11-02T14:00:22.975Z,14.9
2022-11-02T14:02:26.977Z,14.7
2022-11-02T14:04:30.842Z,14.7
2022-11-02T14:06:38.314Z,14.8
2022-11-02T14:08:41.521Z,14.7
2022-11-02T14:10:45.453Z,14.7
2022-11-02T14:12:49.378Z,14.7
2022-11-02T14:16:57.305Z,14.7
2022-11-02T14:19:02.775Z,14.7
2022-11-02T14:21:07.960Z,14.7
2022-11-02T14:23:11.913Z,14.6
2022-11-02T14:25:15.817Z,14.5
2022-11-02T14:26:19.200Z,14.4
2022-11-02T14:30:27.049Z,14.4
2022-11-02T14:32:30.996Z,14.4
2022-11-02T14:34:37.758Z,14.3
2022-11-02T14:36:41.694Z,14.3
2022-11-02T14:38:45.632Z,14.3
2022-11-02T14:40:49.762Z,14.2
2022-11-02T14:42:53.481Z,14.1
2022-11-02T14:44:57.426Z,14.1
2022-11-02T14:47:01.373Z,14.2
2022-11-02T14:49:08.114Z,14.2
2022-11-02T14:51:12.047Z,14.2
2022-11-02T14:53:15.979Z,14.2
2022-11-02T14:55:19.913Z,14.2
2022-11-02T14:57:23.828Z,14.2
2022-11-02T14:59:27.762Z,14.2
2022-11-02T15:01:31.723Z,14.1
2022-11-02T15:03:38.443Z,14.1
2022-11-02T15:05:42.375Z,14.1
2022-11-02T15:07:46.306Z,14
2022-11-02T15:09:50.246Z,14
2022-11-02T15:11:54.187Z,13.9
2022-11-02T15:13:58.103Z,13.9
2022-11-02T15:16:02.057Z,13.9
2022-11-02T15:18:08.778Z,13.7
2022-11-02T15:20:12.712Z,13.6
2022-11-02T15:22:16.669Z,13.6
2022-11-02T15:23:29.965Z,13.5
2022-11-02T15:27:27.886Z,13.5
2022-11-02T15:29:31.839Z,13.4
2022-11-02T15:31:38.587Z,13.3
2022-11-02T15:33:42.551Z,13.3
2022-11-02T15:35:46.449Z,13.3
2022-11-02T15:38:11.294Z,13.2
2022-11-02T15:39:54.305Z,13.2
2022-11-02T15:41:58.230Z,13.2
2022-11-02T15:48:12.841Z,13.2
2022-11-02T15:50:16.768Z,13.1
2022-11-02T15:56:28.566Z,13
2022-11-02T15:58:32.462Z,12.9
2022-11-02T16:04:47.083Z,12.8
2022-11-02T16:17:13.415Z,12.6
2022-11-02T16:20:22.209Z,12.5
2022-11-02T16:22:26.118Z,12.5
2022-11-02T16:24:30.076Z,12.5
2022-11-02T16:26:33.944Z,12.4
2022-11-02T16:28:40.689Z,12.4
2022-11-02T16:30:44.600Z,12.4
2022-11-02T16:32:48.540Z,12.4
2022-11-02T16:34:52.457Z,12.3
2022-11-02T16:36:56.364Z,12.2
2022-11-02T16:39:00.284Z,12.2
2022-11-02T16:41:04.207Z,12.2
2022-11-02T16:43:10.922Z,12.2
2022-11-02T16:45:14.846Z,12.2
2022-11-02T16:47:18.757Z,12.1
2022-11-02T16:49:22.681Z,12.1
2022-11-02T16:51:26.591Z,12
2022-11-02T16:53:30.538Z,12
2022-11-02T16:55:34.429Z,12
2022-11-02T16:59:45.087Z,11.9
2022-11-02T17:03:52.943Z,12
2022-11-02T17:05:56.834Z,11.9
2022-11-02T17:08:00.750Z,11.9
2022-11-02T17:10:04.750Z,11.9
2022-11-02T17:12:11.408Z,11.8
2022-11-02T17:14:15.321Z,11.8
2022-11-02T17:18:48.869Z,11.8
2022-11-02T17:20:52.802Z,11.7
2022-11-02T17:22:56.709Z,11.7
2022-11-02T17:25:03.433Z,11.7
2022-11-02T17:27:07.468Z,11.7
2022-11-02T17:29:11.255Z,11.7
2022-11-02T17:35:27.004Z,11.7
2022-11-02T17:39:33.630Z,11.8
2022-11-02T17:41:37.553Z,11.8
2022-11-02T17:54:03.832Z,11.9
2022-11-02T17:58:11.679Z,11.9
2022-11-02T18:00:15.584Z,11.9
2022-11-02T18:02:19.587Z,11.9
2022-11-02T18:04:23.417Z,11.9
2022-11-02T18:06:27.327Z,11.9
2022-11-02T18:08:34.065Z,11.9
2022-11-02T18:10:37.974Z,11.8
2022-11-02T18:12:41.896Z,11.8
2022-11-02T18:13:45.262Z,11.7
2022-11-02T18:15:49.159Z,11.7
2022-11-02T18:17:53.083Z,11.7
2022-11-02T18:19:56.991Z,11.7
2022-11-02T18:22:03.706Z,11.7
2022-11-02T18:24:07.650Z,11.7
2022-11-02T18:26:11.543Z,11.7
2022-11-02T18:28:15.484Z,11.7
2022-11-02T18:38:37.835Z,11.7
2022-11-02T18:40:41.742Z,11.7
2022-11-02T18:42:45.668Z,11.7
2022-11-02T18:44:49.574Z,11.7
2022-11-02T18:46:53.487Z,11.7
2022-11-02T18:48:57.398Z,11.7
2022-11-02T18:51:04.112Z,11.7
2022-11-02T18:55:11.946Z,11.7
2022-11-02T18:57:15.858Z,11.7
2022-11-02T18:59:19.753Z,11.7
2022-11-02T19:01:23.881Z,11.7
2022-11-02T19:03:27.601Z,11.7
2022-11-02T19:05:34.319Z,11.7
2022-11-02T19:07:38.240Z,11.8
2022-11-02T19:09:42.135Z,11.8
2022-11-02T19:10:45.490Z,11.8
2022-11-02T19:12:49.398Z,11.8
2022-11-02T19:14:53.324Z,11.9
2022-11-02T19:16:57.237Z,11.9
2022-11-02T19:19:03.958Z,12
2022-11-02T19:21:07.861Z,12
2022-11-02T19:23:11.830Z,12.1
2022-11-02T19:25:15.710Z,12.1
2022-11-02T19:27:19.619Z,12.2
2022-11-02T19:29:23.538Z,12.3
2022-11-02T19:31:27.439Z,12.3
2022-11-02T19:33:34.151Z,12.3
2022-11-02T19:35:38.090Z,12.3
2022-11-02T19:37:41.991Z,12.3
2022-11-02T19:39:45.909Z,12.3
2022-11-02T19:41:49.810Z,12.3
2022-11-02T19:43:53.725Z,12.4
2022-11-02T19:45:57.647Z,12.4
2022-11-02T19:48:04.866Z,12.4
2022-11-02T19:50:08.282Z,12.4
2022-11-02T19:52:12.199Z,12.4
2022-11-02T19:54:16.094Z,12.3
2022-11-02T19:56:20.027Z,12.4
2022-11-02T19:58:23.944Z,12.4
2022-11-02T20:00:27.867Z,12.3
2022-11-02T20:02:34.692Z,12.2
2022-11-02T20:04:42.340Z,12.2
2022-11-02T20:06:42.432Z,12.3
2022-11-02T20:07:45.792Z,12.2
2022-11-02T20:09:49.721Z,12.2
2022-11-02T20:11:53.641Z,12.2
2022-11-02T20:13:57.565Z,12.2
2022-11-02T20:16:04.289Z,12.2
2022-11-02T20:18:19.024Z,12.2
2022-11-02T20:20:12.152Z,12.1
2022-11-02T20:22:16.054Z,12.2
2022-11-02T20:24:19.979Z,12.2
2022-11-02T20:26:23.908Z,12.2
2022-11-02T20:28:27.843Z,12.1
2022-11-02T20:30:34.553Z,12
2022-11-02T20:32:38.488Z,12
2022-11-02T20:34:42.416Z,12
2022-11-02T20:36:46.359Z,12
2022-11-02T20:38:50.256Z,12
2022-11-02T20:40:54.182Z,12
2022-11-02T20:42:58.107Z,11.9
2022-11-02T20:45:04.830Z,11.9
2022-11-02T20:47:08.762Z,11.9
2022-11-02T20:49:20.952Z,11.9
2022-11-02T20:51:16.618Z,11.9
2022-11-02T20:53:20.534Z,11.9
2022-11-02T20:55:24.451Z,11.9
2022-11-02T20:57:28.390Z,11.9
2022-11-02T20:59:35.129Z,11.8
2022-11-02T21:01:39.212Z,11.9
2022-11-02T21:03:42.944Z,11.9
2022-11-02T21:06:12.616Z,11.9
2022-11-02T21:08:16.536Z,11.9
2022-11-02T21:10:20.481Z,11.9
2022-11-02T21:12:27.290Z,12
2022-11-02T21:14:31.128Z,11.9
2022-11-02T21:16:35.029Z,11.9
2022-11-02T21:18:38.981Z,11.9
2022-11-02T21:20:42.887Z,11.9
2022-11-02T21:22:46.829Z,11.9
2022-11-02T21:24:50.746Z,11.9
2022-11-02T21:26:57.459Z,11.9
2022-11-02T21:29:01.405Z,12
2022-11-02T21:31:05.314Z,11.9
2022-11-02T21:33:09.514Z,12
2022-11-02T21:35:13.169Z,12
2022-11-02T21:37:17.082Z,12
2022-11-02T21:39:21.015Z,11.9
2022-11-02T21:41:27.739Z,12
2022-11-02T21:43:31.671Z,12
2022-11-02T21:49:43.432Z,11.9
2022-11-02T21:51:47.405Z,11.9
2022-11-02T21:53:51.260Z,11.9
2022-11-02T22:00:05.880Z,12
2022-11-02T22:01:09.283Z,11.9
2022-11-02T22:03:13.131Z,11.9
2022-11-02T22:05:17.047Z,12
2022-11-02T22:07:20.976Z,11.9
2022-11-02T22:09:27.723Z,11.9
2022-11-02T22:11:31.648Z,11.9
2022-11-02T22:13:35.551Z,11.9
2022-11-02T22:15:40.975Z,11.9
2022-11-02T22:26:03.358Z,11.9
2022-11-02T22:28:07.277Z,11.9
2022-11-02T22:30:11.188Z,11.8
2022-11-02T22:32:15.109Z,11.9
2022-11-02T22:34:19.038Z,11.8
2022-11-02T22:36:22.946Z,11.8
2022-11-02T22:38:29.693Z,11.8
2022-11-02T22:40:33.603Z,11.8
2022-11-02T22:42:41.390Z,11.8
2022-11-02T22:44:41.522Z,11.8
2022-11-02T22:46:45.358Z,11.8
2022-11-02T22:48:49.273Z,11.8
2022-11-02T22:50:53.225Z,11.8
2022-11-02T22:52:59.935Z,11.7
2022-11-02T22:57:07.756Z,11.7
2022-11-02T22:58:11.108Z,11.7
2022-11-02T23:00:15.104Z,11.7
2022-11-02T23:02:19.011Z,11.7
2022-11-02T23:04:22.864Z,11.7
2022-11-02T23:06:29.594Z,11.7
2022-11-02T23:08:33.510Z,11.7
2022-11-02T23:10:37.431Z,11.7
2022-11-02T23:12:41.338Z,11.7
2022-11-02T23:14:45.256Z,11.7
2022-11-02T23:16:49.175Z,11.7
2022-11-02T23:18:53.064Z,11.8
2022-11-02T23:20:59.801Z,11.8
2022-11-02T23:23:04.105Z,11.8
2022-11-02T23:25:07.608Z,11.7
2022-11-02T23:27:11.519Z,11.7
2022-11-02T23:29:15.442Z,11.7
2022-11-02T23:31:19.350Z,11.7
2022-11-02T23:33:23.243Z,11.7
2022-11-02T23:35:29.981Z,11.6
2022-11-02T23:37:33.883Z,11.6
2022-11-02T23:39:37.892Z,11.6
2022-11-02T23:41:41.704Z,11.6
2022-11-02T23:43:45.629Z,11.6
2022-11-02T23:45:49.528Z,11.6
2022-11-02T23:47:53.449Z,11.5
2022-11-02T23:50:00.172Z,11.5
2022-11-02T23:52:04.092Z,11.5
2022-11-02T23:54:08.021Z,11.5
2022-11-02T23:55:11.375Z,11.5
2022-11-02T23:57:15.313Z,11.5
2022-11-02T23:59:19.234Z,11.5
